sensor_id;sensor_type;location;lat;lon;timestamp;pressure;altitude;pressure_sealevel;temperature;humidity
75972;BME280;64651;47.540;19.088;2023-02-15T00:00:39;102170.53;;;0.58;84.89
75972;BME280;64651;47.540;19.088;2023-02-15T00:05:41;102177.31;;;0.46;84.98
75972;BME280;64651;47.540;19.088;2023-02-15T00:10:43;102173.25;;;0.34;85.55
75972;BME280;64651;47.540;19.088;2023-02-15T00:15:45;102166.16;;;0.33;86.31
75972;BME280;64651;47.540;19.088;2023-02-15T00:20:47;102171.41;;;0.34;86.03
75972;BME280;64651;47.540;19.088;2023-02-15T00:25:50;102173.25;;;0.26;86.13
75972;BME280;64651;47.540;19.088;2023-02-15T00:30:52;102177.47;;;0.20;86.15
75972;BME280;64651;47.540;19.088;2023-02-15T00:35:58;102179.84;;;0.15;86.27
75972;BME280;64651;47.540;19.088;2023-02-15T00:41:03;102174.78;;;0.12;86.57
75972;BME280;64651;47.540;19.088;2023-02-15T00:46:05;102177.12;;;0.07;86.94
75972;BME280;64651;47.540;19.088;2023-02-15T00:51:08;102177.12;;;0.07;87.31
75972;BME280;64651;47.540;19.088;2023-02-15T00:56:10;102178.13;;;-0.02;87.29
75972;BME280;64651;47.540;19.088;2023-02-15T01:01:16;102165.47;;;-0.02;87.42
75972;BME280;64651;47.540;19.088;2023-02-15T01:06:18;102163.41;;;-0.16;87.35
75972;BME280;64651;47.540;19.088;2023-02-15T01:11:22;102156.09;;;-0.31;87.79
75972;BME280;64651;47.540;19.088;2023-02-15T01:16:27;102162.19;;;-0.37;87.95
75972;BME280;64651;47.540;19.088;2023-02-15T01:21:30;102145.44;;;-0.33;88.13
75972;BME280;64651;47.540;19.088;2023-02-15T01:26:32;102177.75;;;-0.31;88.39
75972;BME280;64651;47.540;19.088;2023-02-15T01:31:34;102173.16;;;-0.39;88.89
75972;BME280;64651;47.540;19.088;2023-02-15T01:36:37;102164.88;;;-0.29;88.69
75972;BME280;64651;47.540;19.088;2023-02-15T01:41:39;102170.62;;;-0.32;88.93
75972;BME280;64651;47.540;19.088;2023-02-15T01:46:47;102136.13;;;-0.30;88.31
75972;BME280;64651;47.540;19.088;2023-02-15T01:51:52;102151.69;;;-0.24;87.91
75972;BME280;64651;47.540;19.088;2023-02-15T01:56:57;102143.56;;;-0.41;88.07
75972;BME280;64651;47.540;19.088;2023-02-15T02:02:02;102131.87;;;-0.57;88.11
75972;BME280;64651;47.540;19.088;2023-02-15T02:07:07;102157.78;;;-0.38;88.45
75972;BME280;64651;47.540;19.088;2023-02-15T02:12:10;102156.09;;;-0.82;88.52
75972;BME280;64651;47.540;19.088;2023-02-15T02:17:18;102145.78;;;-0.78;88.79
75972;BME280;64651;47.540;19.088;2023-02-15T02:22:32;102145.28;;;-0.82;89.32
75972;BME280;64651;47.540;19.088;2023-02-15T02:27:52;102142.69;;;-0.99;89.70
75972;BME280;64651;47.540;19.088;2023-02-15T02:33:11;102145.37;;;-0.99;90.04
75972;BME280;64651;47.540;19.088;2023-02-15T02:38:27;102145.28;;;-1.15;90.31
75972;BME280;64651;47.540;19.088;2023-02-15T02:43:39;102130.69;;;-1.31;90.50
75972;BME280;64651;47.540;19.088;2023-02-15T02:48:43;102141.47;;;-1.31;91.12
75972;BME280;64651;47.540;19.088;2023-02-15T02:53:45;102154.72;;;-1.19;91.39
75972;BME280;64651;47.540;19.088;2023-02-15T02:58:55;102160.97;;;-1.19;91.55
75972;BME280;64651;47.540;19.088;2023-02-15T03:04:02;102138.28;;;-1.26;91.43
75972;BME280;64651;47.540;19.088;2023-02-15T03:09:12;102142.84;;;-1.27;91.55
75972;BME280;64651;47.540;19.088;2023-02-15T03:14:19;102158.75;;;-1.24;91.56
75972;BME280;64651;47.540;19.088;2023-02-15T03:19:27;102143.19;;;-1.30;91.70
75972;BME280;64651;47.540;19.088;2023-02-15T03:24:39;102155.97;;;-1.32;91.75
75972;BME280;64651;47.540;19.088;2023-02-15T03:29:45;102156.31;;;-1.35;91.93
75972;BME280;64651;47.540;19.088;2023-02-15T03:34:49;102140.69;;;-1.49;91.81
75972;BME280;64651;47.540;19.088;2023-02-15T03:39:55;102163.50;;;-1.17;91.70
75972;BME280;64651;47.540;19.088;2023-02-15T03:45:25;102169.00;;;-1.01;91.72
75972;BME280;64651;47.540;19.088;2023-02-15T03:50:32;102178.50;;;-1.23;91.84
75972;BME280;64651;47.540;19.088;2023-02-15T03:55:56;102146.78;;;-1.47;91.93
75972;BME280;64651;47.540;19.088;2023-02-15T04:01:00;102149.94;;;-1.26;91.94
75972;BME280;64651;47.540;19.088;2023-02-15T04:06:24;102144.34;;;-1.32;91.87
75972;BME280;64651;47.540;19.088;2023-02-15T04:11:26;102174.59;;;-1.29;91.81
75972;BME280;64651;47.540;19.088;2023-02-15T04:16:29;102165.94;;;-1.06;91.79
75972;BME280;64651;47.540;19.088;2023-02-15T04:21:32;102145.09;;;-1.22;91.61
75972;BME280;64651;47.540;19.088;2023-02-15T04:26:53;102162.09;;;-1.22;91.14
75972;BME280;64651;47.540;19.088;2023-02-15T04:31:57;102151.75;;;-1.60;91.00
75972;BME280;64651;47.540;19.088;2023-02-15T04:36:59;102162.09;;;-1.22;91.12
75972;BME280;64651;47.540;19.088;2023-02-15T04:42:02;102164.66;;;-1.20;90.51
75972;BME280;64651;47.540;19.088;2023-02-15T04:47:04;102150.22;;;-1.37;90.50
75972;BME280;64651;47.540;19.088;2023-02-15T04:52:06;102150.50;;;-1.48;90.84
75972;BME280;64651;47.540;19.088;2023-02-15T04:57:08;102173.19;;;-1.33;91.01
75972;BME280;64651;47.540;19.088;2023-02-15T05:02:10;102154.22;;;-1.67;91.01
75972;BME280;64651;47.540;19.088;2023-02-15T05:07:13;102176.94;;;-1.51;91.36
75972;BME280;64651;47.540;19.088;2023-02-15T05:12:16;102176.47;;;-1.65;91.35
75972;BME280;64651;47.540;19.088;2023-02-15T05:17:18;102175.84;;;-1.58;91.51
75972;BME280;64651;47.540;19.088;2023-02-15T05:22:20;102178.09;;;-1.54;91.57
75972;BME280;64651;47.540;19.088;2023-02-15T05:27:22;102186.53;;;-1.31;91.45
75972;BME280;64651;47.540;19.088;2023-02-15T05:32:43;102187.88;;;-1.35;91.14
75972;BME280;64651;47.540;19.088;2023-02-15T05:37:48;102199.84;;;-1.55;91.25
75972;BME280;64651;47.540;19.088;2023-02-15T05:42:50;102186.44;;;-1.83;91.43
75972;BME280;64651;47.540;19.088;2023-02-15T05:47:52;102204.38;;;-1.56;91.40
75972;BME280;64651;47.540;19.088;2023-02-15T05:52:54;102205.88;;;-1.61;92.10
75972;BME280;64651;47.540;19.088;2023-02-15T05:57:56;102211.19;;;-1.70;92.13
75972;BME280;64651;47.540;19.088;2023-02-15T06:02:58;102213.81;;;-1.78;92.22
75972;BME280;64651;47.540;19.088;2023-02-15T06:08:01;102217.44;;;-1.69;92.09
75972;BME280;64651;47.540;19.088;2023-02-15T06:13:04;102199.53;;;-1.70;92.00
75972;BME280;64651;47.540;19.088;2023-02-15T06:18:06;102221.28;;;-1.54;91.91
75972;BME280;64651;47.540;19.088;2023-02-15T06:23:09;102212.19;;;-1.53;91.84
75972;BME280;64651;47.540;19.088;2023-02-15T06:28:11;102207.47;;;-1.51;91.79
75972;BME280;64651;47.540;19.088;2023-02-15T06:33:13;102228.47;;;-1.19;91.41
75972;BME280;64651;47.540;19.088;2023-02-15T06:38:16;102203.69;;;-1.14;91.20
75972;BME280;64651;47.540;19.088;2023-02-15T06:43:20;102236.22;;;-0.98;90.88
75972;BME280;64651;47.540;19.088;2023-02-15T06:48:22;102218.47;;;-1.01;90.75
75972;BME280;64651;47.540;19.088;2023-02-15T06:53:24;102240.06;;;-0.75;90.33
75972;BME280;64651;47.540;19.088;2023-02-15T06:58:26;102241.84;;;-0.58;89.75
75972;BME280;64651;47.540;19.088;2023-02-15T07:03:29;102222.12;;;-0.50;89.16
75972;BME280;64651;47.540;19.088;2023-02-15T07:08:31;102234.53;;;-0.31;88.69
75972;BME280;64651;47.540;19.088;2023-02-15T07:13:33;102231.38;;;-0.19;88.11
75972;BME280;64651;47.540;19.088;2023-02-15T07:18:36;102217.16;;;-0.21;87.57
75972;BME280;64651;47.540;19.088;2023-02-15T07:23:39;102219.72;;;-0.03;87.13
75972;BME280;64651;47.540;19.088;2023-02-15T07:28:41;102235.12;;;0.13;86.76
75972;BME280;64651;47.540;19.088;2023-02-15T07:33:44;102229.25;;;0.25;86.21
75972;BME280;64651;47.540;19.088;2023-02-15T07:38:46;102232.12;;;0.32;85.89
75972;BME280;64651;47.540;19.088;2023-02-15T07:43:48;102215.22;;;0.46;85.48
75972;BME280;64651;47.540;19.088;2023-02-15T07:48:50;102218.59;;;0.56;84.93
75972;BME280;64651;47.540;19.088;2023-02-15T07:53:59;102233.31;;;0.86;84.40
75972;BME280;64651;47.540;19.088;2023-02-15T07:59:01;102229.22;;;0.98;83.73
75972;BME280;64651;47.540;19.088;2023-02-15T08:04:06;102209.06;;;1.01;83.07
75972;BME280;64651;47.540;19.088;2023-02-15T08:09:09;102223.22;;;1.35;83.04
75972;BME280;64651;47.540;19.088;2023-02-15T08:14:18;102209.06;;;1.56;81.43
75972;BME280;64651;47.540;19.088;2023-02-15T08:19:25;102210.50;;;2.06;81.27
75972;BME280;64651;47.540;19.088;2023-02-15T08:24:30;102185.91;;;2.30;80.05
75972;BME280;64651;47.540;19.088;2023-02-15T08:29:35;102191.78;;;2.56;79.30
75972;BME280;64651;47.540;19.088;2023-02-15T08:34:40;102201.41;;;2.81;77.30
75972;BME280;64651;47.540;19.088;2023-02-15T08:39:42;102185.41;;;2.87;76.14
75972;BME280;64651;47.540;19.088;2023-02-15T08:44:45;102190.84;;;3.31;76.30
75972;BME280;64651;47.540;19.088;2023-02-15T08:49:48;102190.84;;;3.45;74.71
75972;BME280;64651;47.540;19.088;2023-02-15T08:54:51;102179.59;;;3.84;74.66
75972;BME280;64651;47.540;19.088;2023-02-15T09:00:02;102177.88;;;3.98;73.42
75972;BME280;64651;47.540;19.088;2023-02-15T09:05:43;102188.56;;;4.35;72.39
75972;BME280;64651;47.540;19.088;2023-02-15T09:11:09;102190.03;;;4.59;71.12
75972;BME280;64651;47.540;19.088;2023-02-15T09:16:31;102182.81;;;4.73;70.81
75972;BME280;64651;47.540;19.088;2023-02-15T09:21:36;102164.34;;;5.03;69.88
75972;BME280;64651;47.540;19.088;2023-02-15T09:26:41;102177.62;;;5.12;68.40
75972;BME280;64651;47.540;19.088;2023-02-15T09:31:45;102169.56;;;5.73;66.63
75972;BME280;64651;47.540;19.088;2023-02-15T09:36:49;102161.66;;;10.92;50.84
75972;BME280;64651;47.540;19.088;2023-02-15T10:08:45;102127.94;;;17.51;31.66
75972;BME280;64651;47.540;19.088;2023-02-15T10:24:34;102106.09;;;20.14;28.21
75972;BME280;64651;47.540;19.088;2023-02-15T10:30:10;102093.06;;;22.83;24.07
75972;BME280;64651;47.540;19.088;2023-02-15T10:51:03;102095.56;;;23.15;23.76
75972;BME280;64651;47.540;19.088;2023-02-15T11:01:44;102069.66;;;24.87;21.32
75972;BME280;64651;47.540;19.088;2023-02-15T11:06:52;102084.47;;;25.22;21.02
75972;BME280;64651;47.540;19.088;2023-02-15T11:11:56;102057.81;;;25.49;20.86
75972;BME280;64651;47.540;19.088;2023-02-15T11:17:09;102053.78;;;24.82;21.21
75972;BME280;64651;47.540;19.088;2023-02-15T11:22:12;102049.59;;;26.80;18.99
75972;BME280;64651;47.540;19.088;2023-02-15T11:27:24;102040.53;;;27.56;18.82
75972;BME280;64651;47.540;19.088;2023-02-15T11:32:37;102040.06;;;25.48;19.69
75972;BME280;64651;47.540;19.088;2023-02-15T11:37:47;102033.25;;;26.41;18.93
75972;BME280;64651;47.540;19.088;2023-02-15T11:42:53;102013.00;;;25.26;20.17
75972;BME280;64651;47.540;19.088;2023-02-15T11:47:58;102016.44;;;24.04;21.32
75972;BME280;64651;47.540;19.088;2023-02-15T11:53:03;102000.47;;;27.18;18.21
75972;BME280;64651;47.540;19.088;2023-02-15T12:03:26;101990.13;;;29.17;16.76
75972;BME280;64651;47.540;19.088;2023-02-15T12:08:43;101994.03;;;26.06;18.93
75972;BME280;64651;47.540;19.088;2023-02-15T12:14:02;101986.47;;;27.85;18.09
75972;BME280;64651;47.540;19.088;2023-02-15T12:19:04;101975.78;;;24.74;20.80
75972;BME280;64651;47.540;19.088;2023-02-15T12:24:37;101971.03;;;27.19;18.26
75972;BME280;64651;47.540;19.088;2023-02-15T12:29:42;101959.41;;;29.54;16.50
75972;BME280;64651;47.540;19.088;2023-02-15T12:34:46;101951.19;;;28.98;16.96
75972;BME280;64651;47.540;19.088;2023-02-15T12:39:57;101952.13;;;26.62;18.41
75972;BME280;64651;47.540;19.088;2023-02-15T12:45:00;101946.44;;;25.13;19.85
75972;BME280;64651;47.540;19.088;2023-02-15T12:50:15;101942.09;;;25.24;19.82
75972;BME280;64651;47.540;19.088;2023-02-15T12:55:26;101948.06;;;24.85;20.37
75972;BME280;64651;47.540;19.088;2023-02-15T13:00:31;101922.22;;;22.90;22.65
75972;BME280;64651;47.540;19.088;2023-02-15T13:05:37;101928.25;;;23.23;22.32
75972;BME280;64651;47.540;19.088;2023-02-15T13:10:52;101905.09;;;23.43;21.89
75972;BME280;64651;47.540;19.088;2023-02-15T13:16:05;101906.56;;;24.73;20.55
75972;BME280;64651;47.540;19.088;2023-02-15T13:21:12;101902.44;;;24.07;21.35
75972;BME280;64651;47.540;19.088;2023-02-15T13:26:19;101904.28;;;23.17;22.47
75972;BME280;64651;47.540;19.088;2023-02-15T13:31:27;101891.16;;;24.33;21.28
75972;BME280;64651;47.540;19.088;2023-02-15T13:36:44;101895.97;;;24.70;20.97
75972;BME280;64651;47.540;19.088;2023-02-15T13:42:05;101879.44;;;19.64;26.83
75972;BME280;64651;47.540;19.088;2023-02-15T14:09:27;101885.59;;;18.86;27.67
75972;BME280;64651;47.540;19.088;2023-02-15T14:20:29;101884.66;;;20.03;27.61
75972;BME280;64651;47.540;19.088;2023-02-15T14:25:40;101878.94;;;19.43;28.05
75972;BME280;64651;47.540;19.088;2023-02-15T14:30:49;101881.19;;;18.61;29.20
75972;BME280;64651;47.540;19.088;2023-02-15T14:35:52;101886.59;;;17.95;30.08
75972;BME280;64651;47.540;19.088;2023-02-15T14:40:59;101872.97;;;17.60;30.10
75972;BME280;64651;47.540;19.088;2023-02-15T14:56:46;101878.41;;;16.02;33.29
75972;BME280;64651;47.540;19.088;2023-02-15T15:01:58;101873.09;;;15.50;34.87
75972;BME280;64651;47.540;19.088;2023-02-15T15:08:05;101851.66;;;14.90;35.75
75972;BME280;64651;47.540;19.088;2023-02-15T15:12:37;101865.38;;;15.98;34.27
75972;BME280;64651;47.540;19.088;2023-02-15T15:18:06;101857.56;;;13.62;39.01
75972;BME280;64651;47.540;19.088;2023-02-15T15:39:47;101861.72;;;9.87;49.33
75972;BME280;64651;47.540;19.088;2023-02-15T15:45:51;101858.25;;;8.85;52.94
75972;BME280;64651;47.540;19.088;2023-02-15T15:50:34;101845.91;;;8.10;55.01
75972;BME280;64651;47.540;19.088;2023-02-15T15:55:36;101850.16;;;7.63;56.99
75972;BME280;64651;47.540;19.088;2023-02-15T16:00:43;101845.03;;;7.23;58.72
75972;BME280;64651;47.540;19.088;2023-02-15T16:05:46;101862.78;;;7.08;60.23
75972;BME280;64651;47.540;19.088;2023-02-15T16:10:50;101855.03;;;6.67;61.65
75972;BME280;64651;47.540;19.088;2023-02-15T16:15:54;101849.22;;;6.57;61.93
75972;BME280;64651;47.540;19.088;2023-02-15T16:20:58;101854.09;;;6.41;62.87
75972;BME280;64651;47.540;19.088;2023-02-15T16:31:22;101846.44;;;6.05;64.59
75972;BME280;64651;47.540;19.088;2023-02-15T16:36:27;101859.91;;;6.00;65.15
75972;BME280;64651;47.540;19.088;2023-02-15T16:41:30;101868.78;;;5.89;65.75
75972;BME280;64651;47.540;19.088;2023-02-15T16:46:42;101867.06;;;5.75;67.16
75972;BME280;64651;47.540;19.088;2023-02-15T16:51:55;101854.91;;;5.51;67.55
75972;BME280;64651;47.540;19.088;2023-02-15T16:56:58;101861.00;;;5.40;68.18
75972;BME280;64651;47.540;19.088;2023-02-15T17:02:04;101869.41;;;5.45;68.42
75972;BME280;64651;47.540;19.088;2023-02-15T17:07:19;101878.63;;;5.51;68.44
75972;BME280;64651;47.540;19.088;2023-02-15T17:12:45;101863.53;;;5.48;68.28
75972;BME280;64651;47.540;19.088;2023-02-15T17:17:48;101883.91;;;5.65;67.84
75972;BME280;64651;47.540;19.088;2023-02-15T17:22:51;101884.94;;;5.51;68.26
75972;BME280;64651;47.540;19.088;2023-02-15T17:27:55;101869.41;;;5.39;68.56
75972;BME280;64651;47.540;19.088;2023-02-15T17:33:00;101872.97;;;5.46;68.54
75972;BME280;64651;47.540;19.088;2023-02-15T17:38:17;101888.50;;;5.39;69.53
75972;BME280;64651;47.540;19.088;2023-02-15T17:43:20;101873.16;;;5.05;70.11
75972;BME280;64651;47.540;19.088;2023-02-15T17:48:31;101881.72;;;5.02;70.62
75972;BME280;64651;47.540;19.088;2023-02-15T17:53:34;101854.59;;;4.67;71.52
75972;BME280;64651;47.540;19.088;2023-02-15T17:58:36;101882.09;;;4.79;71.88
75972;BME280;64651;47.540;19.088;2023-02-15T18:03:50;101888.69;;;4.43;72.70
75972;BME280;64651;47.540;19.088;2023-02-15T18:09:13;101888.69;;;4.09;74.18
75972;BME280;64651;47.540;19.088;2023-02-15T18:14:35;101888.63;;;3.96;74.89
75972;BME280;64651;47.540;19.088;2023-02-15T18:19:54;101885.25;;;3.66;76.20
75972;BME280;64651;47.540;19.088;2023-02-15T18:24:57;101887.44;;;3.49;76.85
75972;BME280;64651;47.540;19.088;2023-02-15T18:29:59;101873.09;;;3.34;77.26
75972;BME280;64651;47.540;19.088;2023-02-15T18:35:03;101883.91;;;3.28;78.32
75972;BME280;64651;47.540;19.088;2023-02-15T18:40:22;101868.41;;;3.07;78.78
75972;BME280;64651;47.540;19.088;2023-02-15T18:45:27;101876.31;;;3.02;79.23
75972;BME280;64651;47.540;19.088;2023-02-15T18:50:36;101872.34;;;2.83;79.72
75972;BME280;64651;47.540;19.088;2023-02-15T18:55:38;101886.12;;;2.81;80.58
75972;BME280;64651;47.540;19.088;2023-02-15T19:00:41;101868.78;;;2.61;80.94
75972;BME280;64651;47.540;19.088;2023-02-15T19:05:46;101857.66;;;2.41;81.17
75972;BME280;64651;47.540;19.088;2023-02-15T19:10:49;101880.06;;;2.43;81.21
75972;BME280;64651;47.540;19.088;2023-02-15T19:15:52;101874.25;;;2.47;81.07
75972;BME280;64651;47.540;19.088;2023-02-15T19:20:54;101856.59;;;2.57;81.00
75972;BME280;64651;47.540;19.088;2023-02-15T19:25:56;101866.66;;;2.42;81.24
75972;BME280;64651;47.540;19.088;2023-02-15T19:30:58;101876.75;;;3.05;84.68
75972;BME280;64651;47.540;19.088;2023-02-15T19:36:01;101857.19;;;2.38;81.74
75972;BME280;64651;47.540;19.088;2023-02-15T19:41:05;101875.84;;;2.41;81.44
75972;BME280;64651;47.540;19.088;2023-02-15T19:46:14;101873.87;;;2.20;82.12
75972;BME280;64651;47.540;19.088;2023-02-15T19:51:19;101866.25;;;1.94;83.01
75972;BME280;64651;47.540;19.088;2023-02-15T19:56:22;101859.50;;;1.76;83.09
75972;BME280;64651;47.540;19.088;2023-02-15T20:01:25;101881.44;;;1.66;83.68
75972;BME280;64651;47.540;19.088;2023-02-15T20:06:28;101856.13;;;1.88;85.38
75972;BME280;64651;47.540;19.088;2023-02-15T20:11:30;101878.88;;;2.67;85.26
75972;BME280;64651;47.540;19.088;2023-02-15T20:16:32;101881.78;;;2.00;83.38
75972;BME280;64651;47.540;19.088;2023-02-15T20:21:34;101856.09;;;1.59;84.31
75972;BME280;64651;47.540;19.088;2023-02-15T20:26:37;101875.00;;;1.67;84.80
75972;BME280;64651;47.540;19.088;2023-02-15T20:31:40;101878.25;;;1.48;85.30
75972;BME280;64651;47.540;19.088;2023-02-15T20:36:43;101868.50;;;1.39;85.91
75972;BME280;64651;47.540;19.088;2023-02-15T20:41:45;101874.06;;;1.22;86.43
75972;BME280;64651;47.540;19.088;2023-02-15T20:46:52;101867.50;;;1.17;86.84
75972;BME280;64651;47.540;19.088;2023-02-15T20:51:56;101876.31;;;1.19;86.99
75972;BME280;64651;47.540;19.088;2023-02-15T20:56:59;101875.72;;;1.09;87.20
75972;BME280;64651;47.540;19.088;2023-02-15T21:07:18;101868.53;;;0.93;87.96
75972;BME280;64651;47.540;19.088;2023-02-15T21:12:21;101869.81;;;0.82;88.46
75972;BME280;64651;47.540;19.088;2023-02-15T21:17:24;101868.41;;;0.87;88.71
75972;BME280;64651;47.540;19.088;2023-02-15T21:22:35;101860.16;;;0.80;88.72
75972;BME280;64651;47.540;19.088;2023-02-15T21:27:37;101874.75;;;0.79;88.74
75972;BME280;64651;47.540;19.088;2023-02-15T21:32:40;101875.34;;;0.89;88.18
75972;BME280;64651;47.540;19.088;2023-02-15T21:37:49;101860.16;;;0.80;87.65
75972;BME280;64651;47.540;19.088;2023-02-15T21:42:56;101862.81;;;0.65;87.84
75972;BME280;64651;47.540;19.088;2023-02-15T21:48:20;101830.66;;;0.31;87.93
75972;BME280;64651;47.540;19.088;2023-02-15T21:53:45;101862.09;;;0.40;88.23
75972;BME280;64651;47.540;19.088;2023-02-15T21:58:48;101856.41;;;0.27;88.32
75972;BME280;64651;47.540;19.088;2023-02-15T22:03:56;101849.75;;;0.38;88.42
75972;BME280;64651;47.540;19.088;2023-02-15T22:08:59;101863.69;;;0.27;88.81
75972;BME280;64651;47.540;19.088;2023-02-15T22:14:05;101852.56;;;0.22;88.86
75972;BME280;64651;47.540;19.088;2023-02-15T22:19:18;101864.19;;;0.30;88.99
75972;BME280;64651;47.540;19.088;2023-02-15T22:24:20;101868.66;;;0.07;89.31
75972;BME280;64651;47.540;19.088;2023-02-15T22:29:22;101870.03;;;0.11;89.27
75972;BME280;64651;47.540;19.088;2023-02-15T22:34:30;101874.13;;;-0.01;89.40
75972;BME280;64651;47.540;19.088;2023-02-15T22:39:32;101877.53;;;-0.07;89.54
75972;BME280;64651;47.540;19.088;2023-02-15T22:44:34;101862.16;;;-0.15;89.46
75972;BME280;64651;47.540;19.088;2023-02-15T22:49:37;101881.22;;;0.00;89.79
75972;BME280;64651;47.540;19.088;2023-02-15T22:54:39;101873.16;;;-0.24;90.02
75972;BME280;64651;47.540;19.088;2023-02-15T22:59:41;101865.56;;;-0.21;89.82
75972;BME280;64651;47.540;19.088;2023-02-15T23:04:43;101871.97;;;-0.22;89.74
75972;BME280;64651;47.540;19.088;2023-02-15T23:09:45;101881.50;;;0.52;90.46
75972;BME280;64651;47.540;19.088;2023-02-15T23:14:51;101863.47;;;0.06;89.58
75972;BME280;64651;47.540;19.088;2023-02-15T23:19:55;101859.75;;;0.37;89.56
75972;BME280;64651;47.540;19.088;2023-02-15T23:24:57;101874.97;;;0.38;89.47
75972;BME280;64651;47.540;19.088;2023-02-15T23:30:01;101884.41;;;0.04;89.15
75972;BME280;64651;47.540;19.088;2023-02-15T23:35:13;101860.25;;;-0.06;89.31
75972;BME280;64651;47.540;19.088;2023-02-15T23:40:19;101862.31;;;-0.16;89.29
75972;BME280;64651;47.540;19.088;2023-02-15T23:45:41;101866.72;;;-0.07;89.78
75972;BME280;64651;47.540;19.088;2023-02-15T23:50:43;101834.53;;;0.06;89.88
75972;BME280;64651;47.540;19.088;2023-02-15T23:55:45;101858.84;;;0.14;89.85
